sensor_id;sensor_type;location;lat;lon;timestamp;temperature;humidity
3418;DHT22;68007;51.312;12.372;2023-10-31T00:00:39;15.90;95.60
3418;DHT22;68007;51.312;12.372;2023-10-31T00:03:07;15.90;95.60
3418;DHT22;68007;51.312;12.372;2023-10-31T00:05:36;15.90;95.70
3418;DHT22;68007;51.312;12.372;2023-10-31T00:08:04;15.90;95.60
3418;DHT22;68007;51.312;12.372;2023-10-31T00:10:33;15.90;95.60
3418;DHT22;68007;51.312;12.372;2023-10-31T00:13:00;15.90;95.60
3418;DHT22;68007;51.312;12.372;2023-10-31T00:15:28;15.90;95.90
3418;DHT22;68007;51.312;12.372;2023-10-31T00:17:56;15.90;95.60
3418;DHT22;68007;51.312;12.372;2023-10-31T00:20:24;16.00;95.70
3418;DHT22;68007;51.312;12.372;2023-10-31T00:22:51;15.90;95.60
3418;DHT22;68007;51.312;12.372;2023-10-31T00:25:19;15.90;95.60
3418;DHT22;68007;51.312;12.372;2023-10-31T00:27:48;16.00;95.60
3418;DHT22;68007;51.312;12.372;2023-10-31T00:30:15;15.90;95.70
3418;DHT22;68007;51.312;12.372;2023-10-31T00:32:43;15.90;95.80
3418;DHT22;68007;51.312;12.372;2023-10-31T00:35:10;15.90;95.80
3418;DHT22;68007;51.312;12.372;2023-10-31T00:37:39;15.90;95.80
3418;DHT22;68007;51.312;12.372;2023-10-31T00:40:07;15.90;95.70
3418;DHT22;68007;51.312;12.372;2023-10-31T00:42:37;15.80;95.80
3418;DHT22;68007;51.312;12.372;2023-10-31T00:45:07;15.90;95.90
3418;DHT22;68007;51.312;12.372;2023-10-31T00:47:35;15.80;95.80
3418;DHT22;68007;51.312;12.372;2023-10-31T00:50:03;15.70;96.10
3418;DHT22;68007;51.312;12.372;2023-10-31T00:52:31;15.70;96.20
3418;DHT22;68007;51.312;12.372;2023-10-31T00:54:58;15.60;96.20
3418;DHT22;68007;51.312;12.372;2023-10-31T00:57:26;15.60;96.50
3418;DHT22;68007;51.312;12.372;2023-10-31T00:59:54;15.60;96.30
3418;DHT22;68007;51.312;12.372;2023-10-31T01:02:23;15.60;96.40
3418;DHT22;68007;51.312;12.372;2023-10-31T01:04:50;15.50;96.50
3418;DHT22;68007;51.312;12.372;2023-10-31T01:07:18;15.50;96.50
3418;DHT22;68007;51.312;12.372;2023-10-31T01:09:45;15.40;96.70
3418;DHT22;68007;51.312;12.372;2023-10-31T01:12:13;15.30;96.90
3418;DHT22;68007;51.312;12.372;2023-10-31T01:14:40;15.30;97.10
3418;DHT22;68007;51.312;12.372;2023-10-31T01:17:08;15.30;97.10
3418;DHT22;68007;51.312;12.372;2023-10-31T01:19:36;15.40;97.10
3418;DHT22;68007;51.312;12.372;2023-10-31T01:22:04;15.40;97.00
3418;DHT22;68007;51.312;12.372;2023-10-31T01:24:33;15.50;96.90
3418;DHT22;68007;51.312;12.372;2023-10-31T01:27:01;15.50;96.80
3418;DHT22;68007;51.312;12.372;2023-10-31T01:29:28;15.50;96.70
3418;DHT22;68007;51.312;12.372;2023-10-31T01:31:56;15.50;96.60
3418;DHT22;68007;51.312;12.372;2023-10-31T01:34:23;15.50;96.60
3418;DHT22;68007;51.312;12.372;2023-10-31T01:36:52;15.50;96.70
3418;DHT22;68007;51.312;12.372;2023-10-31T01:39:19;15.50;96.70
3418;DHT22;68007;51.312;12.372;2023-10-31T01:41:47;15.50;96.70
3418;DHT22;68007;51.312;12.372;2023-10-31T01:44:15;15.40;96.80
3418;DHT22;68007;51.312;12.372;2023-10-31T01:46:42;15.40;96.80
3418;DHT22;68007;51.312;12.372;2023-10-31T01:49:10;15.40;96.80
3418;DHT22;68007;51.312;12.372;2023-10-31T01:51:37;15.50;96.80
3418;DHT22;68007;51.312;12.372;2023-10-31T01:54:07;15.40;96.80
3418;DHT22;68007;51.312;12.372;2023-10-31T01:56:36;15.40;96.80
3418;DHT22;68007;51.312;12.372;2023-10-31T01:59:05;15.40;96.80
3418;DHT22;68007;51.312;12.372;2023-10-31T02:01:33;15.30;97.00
3418;DHT22;68007;51.312;12.372;2023-10-31T02:04:03;15.30;97.00
3418;DHT22;68007;51.312;12.372;2023-10-31T02:06:31;15.40;97.00
3418;DHT22;68007;51.312;12.372;2023-10-31T02:08:59;15.30;97.50
3418;DHT22;68007;51.312;12.372;2023-10-31T02:11:28;15.30;97.30
3418;DHT22;68007;51.312;12.372;2023-10-31T02:13:55;15.20;97.30
3418;DHT22;68007;51.312;12.372;2023-10-31T02:16:22;15.20;97.40
3418;DHT22;68007;51.312;12.372;2023-10-31T02:18:51;15.20;97.80
3418;DHT22;68007;51.312;12.372;2023-10-31T02:21:20;15.20;97.50
3418;DHT22;68007;51.312;12.372;2023-10-31T02:23:57;15.10;97.60
3418;DHT22;68007;51.312;12.372;2023-10-31T02:26:28;15.10;97.60
3418;DHT22;68007;51.312;12.372;2023-10-31T02:28:56;15.20;97.60
3418;DHT22;68007;51.312;12.372;2023-10-31T02:31:23;15.20;97.50
3418;DHT22;68007;51.312;12.372;2023-10-31T02:33:51;15.10;97.70
3418;DHT22;68007;51.312;12.372;2023-10-31T02:36:19;15.10;97.80
3418;DHT22;68007;51.312;12.372;2023-10-31T02:38:47;15.20;97.80
3418;DHT22;68007;51.312;12.372;2023-10-31T02:41:15;15.20;97.70
3418;DHT22;68007;51.312;12.372;2023-10-31T02:43:43;15.20;97.60
3418;DHT22;68007;51.312;12.372;2023-10-31T02:46:10;15.20;97.50
3418;DHT22;68007;51.312;12.372;2023-10-31T02:48:38;15.10;97.70
3418;DHT22;68007;51.312;12.372;2023-10-31T02:51:06;15.00;98.00
3418;DHT22;68007;51.312;12.372;2023-10-31T02:53:34;15.00;98.10
3418;DHT22;68007;51.312;12.372;2023-10-31T02:56:02;15.00;98.20
3418;DHT22;68007;51.312;12.372;2023-10-31T02:58:31;15.00;98.30
3418;DHT22;68007;51.312;12.372;2023-10-31T03:00:59;15.00;98.30
3418;DHT22;68007;51.312;12.372;2023-10-31T03:03:26;15.00;98.30
3418;DHT22;68007;51.312;12.372;2023-10-31T03:05:54;15.00;98.30
3418;DHT22;68007;51.312;12.372;2023-10-31T03:08:22;15.00;98.40
3418;DHT22;68007;51.312;12.372;2023-10-31T03:10:49;15.00;98.40
3418;DHT22;68007;51.312;12.372;2023-10-31T03:13:18;14.90;98.50
3418;DHT22;68007;51.312;12.372;2023-10-31T03:15:47;15.00;98.50
3418;DHT22;68007;51.312;12.372;2023-10-31T03:18:15;15.00;98.30
3418;DHT22;68007;51.312;12.372;2023-10-31T03:20:44;15.10;98.20
3418;DHT22;68007;51.312;12.372;2023-10-31T03:23:12;15.10;98.20
3418;DHT22;68007;51.312;12.372;2023-10-31T03:25:40;15.10;98.20
3418;DHT22;68007;51.312;12.372;2023-10-31T03:28:18;15.20;98.10
3418;DHT22;68007;51.312;12.372;2023-10-31T03:30:48;15.30;97.90
3418;DHT22;68007;51.312;12.372;2023-10-31T03:33:15;15.20;98.10
3418;DHT22;68007;51.312;12.372;2023-10-31T03:35:43;15.20;97.90
3418;DHT22;68007;51.312;12.372;2023-10-31T03:38:11;15.30;97.80
3418;DHT22;68007;51.312;12.372;2023-10-31T03:40:38;15.30;97.80
3418;DHT22;68007;51.312;12.372;2023-10-31T03:43:06;15.30;97.80
3418;DHT22;68007;51.312;12.372;2023-10-31T03:45:33;15.30;97.80
3418;DHT22;68007;51.312;12.372;2023-10-31T03:48:03;15.30;97.90
3418;DHT22;68007;51.312;12.372;2023-10-31T03:50:30;15.30;97.80
3418;DHT22;68007;51.312;12.372;2023-10-31T03:52:58;15.20;98.10
3418;DHT22;68007;51.312;12.372;2023-10-31T03:55:25;15.20;98.10
3418;DHT22;68007;51.312;12.372;2023-10-31T03:57:53;15.20;98.10
3418;DHT22;68007;51.312;12.372;2023-10-31T04:00:20;15.20;98.10
3418;DHT22;68007;51.312;12.372;2023-10-31T04:02:48;15.20;98.10
3418;DHT22;68007;51.312;12.372;2023-10-31T04:05:16;15.20;98.10
3418;DHT22;68007;51.312;12.372;2023-10-31T04:07:46;15.30;98.10
3418;DHT22;68007;51.312;12.372;2023-10-31T04:10:14;15.20;98.10
3418;DHT22;68007;51.312;12.372;2023-10-31T04:12:42;15.20;98.30
3418;DHT22;68007;51.312;12.372;2023-10-31T04:15:09;15.20;98.30
3418;DHT22;68007;51.312;12.372;2023-10-31T04:17:37;15.20;98.20
3418;DHT22;68007;51.312;12.372;2023-10-31T04:20:06;15.10;98.40
3418;DHT22;68007;51.312;12.372;2023-10-31T04:22:35;15.00;98.60
3418;DHT22;68007;51.312;12.372;2023-10-31T04:25:03;15.00;98.70
3418;DHT22;68007;51.312;12.372;2023-10-31T04:27:31;15.00;98.70
3418;DHT22;68007;51.312;12.372;2023-10-31T04:29:58;15.00;98.70
3418;DHT22;68007;51.312;12.372;2023-10-31T04:32:26;15.00;98.70
3418;DHT22;68007;51.312;12.372;2023-10-31T04:34:53;15.00;98.80
3418;DHT22;68007;51.312;12.372;2023-10-31T04:37:21;15.00;98.70
3418;DHT22;68007;51.312;12.372;2023-10-31T04:39:50;15.00;98.70
3418;DHT22;68007;51.312;12.372;2023-10-31T04:42:17;15.00;98.70
3418;DHT22;68007;51.312;12.372;2023-10-31T04:44:46;15.00;98.60
3418;DHT22;68007;51.312;12.372;2023-10-31T04:47:14;15.00;98.80
3418;DHT22;68007;51.312;12.372;2023-10-31T04:49:42;15.00;98.80
3418;DHT22;68007;51.312;12.372;2023-10-31T04:52:10;14.80;98.70
3418;DHT22;68007;51.312;12.372;2023-10-31T04:54:38;14.70;99.20
3418;DHT22;68007;51.312;12.372;2023-10-31T04:57:08;14.70;99.30
3418;DHT22;68007;51.312;12.372;2023-10-31T04:59:35;14.70;99.20
3418;DHT22;68007;51.312;12.372;2023-10-31T05:02:03;14.80;99.40
3418;DHT22;68007;51.312;12.372;2023-10-31T05:04:31;14.70;99.10
3418;DHT22;68007;51.312;12.372;2023-10-31T05:06:58;14.70;99.10
3418;DHT22;68007;51.312;12.372;2023-10-31T05:09:27;14.60;99.10
3418;DHT22;68007;51.312;12.372;2023-10-31T05:11:54;14.50;99.40
3418;DHT22;68007;51.312;12.372;2023-10-31T05:14:23;14.40;99.50
3418;DHT22;68007;51.312;12.372;2023-10-31T05:16:51;14.30;99.80
3418;DHT22;68007;51.312;12.372;2023-10-31T05:19:18;14.20;99.90
3418;DHT22;68007;51.312;12.372;2023-10-31T05:21:45;14.00;99.90
3418;DHT22;68007;51.312;12.372;2023-10-31T05:24:13;14.00;99.90
3418;DHT22;68007;51.312;12.372;2023-10-31T05:26:41;13.90;99.90
3418;DHT22;68007;51.312;12.372;2023-10-31T05:29:09;13.90;99.90
3418;DHT22;68007;51.312;12.372;2023-10-31T05:31:38;13.90;99.90
3418;DHT22;68007;51.312;12.372;2023-10-31T05:34:05;13.80;99.90
3418;DHT22;68007;51.312;12.372;2023-10-31T05:36:33;13.80;99.90
3418;DHT22;68007;51.312;12.372;2023-10-31T05:39:00;13.70;99.90
3418;DHT22;68007;51.312;12.372;2023-10-31T05:41:28;13.70;99.90
3418;DHT22;68007;51.312;12.372;2023-10-31T05:43:55;13.70;99.90
3418;DHT22;68007;51.312;12.372;2023-10-31T05:46:23;13.70;99.90
3418;DHT22;68007;51.312;12.372;2023-10-31T05:48:52;13.60;99.80
3418;DHT22;68007;51.312;12.372;2023-10-31T05:51:19;13.50;99.80
3418;DHT22;68007;51.312;12.372;2023-10-31T05:53:48;13.40;99.80
3418;DHT22;68007;51.312;12.372;2023-10-31T05:56:16;13.40;99.50
3418;DHT22;68007;51.312;12.372;2023-10-31T05:58:43;13.40;99.60
3418;DHT22;68007;51.312;12.372;2023-10-31T06:01:11;13.40;99.60
3418;DHT22;68007;51.312;12.372;2023-10-31T06:03:41;13.30;99.50
3418;DHT22;68007;51.312;12.372;2023-10-31T06:06:11;13.40;99.60
3418;DHT22;68007;51.312;12.372;2023-10-31T06:08:39;13.40;99.40
3418;DHT22;68007;51.312;12.372;2023-10-31T06:11:07;13.30;99.20
3418;DHT22;68007;51.312;12.372;2023-10-31T06:13:34;13.30;99.00
3418;DHT22;68007;51.312;12.372;2023-10-31T06:16:02;13.20;99.10
3418;DHT22;68007;51.312;12.372;2023-10-31T06:18:29;13.20;99.10
3418;DHT22;68007;51.312;12.372;2023-10-31T06:20:57;13.10;98.90
3418;DHT22;68007;51.312;12.372;2023-10-31T06:23:26;13.10;99.00
3418;DHT22;68007;51.312;12.372;2023-10-31T06:25:53;13.00;99.00
3418;DHT22;68007;51.312;12.372;2023-10-31T06:28:21;13.10;98.80
3418;DHT22;68007;51.312;12.372;2023-10-31T06:30:48;13.00;99.00
3418;DHT22;68007;51.312;12.372;2023-10-31T06:33:16;13.00;98.90
3418;DHT22;68007;51.312;12.372;2023-10-31T06:35:43;13.00;98.70
3418;DHT22;68007;51.312;12.372;2023-10-31T06:38:11;13.00;98.80
3418;DHT22;68007;51.312;12.372;2023-10-31T06:40:40;13.00;98.70
3418;DHT22;68007;51.312;12.372;2023-10-31T06:43:08;12.90;98.60
3418;DHT22;68007;51.312;12.372;2023-10-31T06:45:35;12.90;98.60
3418;DHT22;68007;51.312;12.372;2023-10-31T06:48:03;12.90;98.50
3418;DHT22;68007;51.312;12.372;2023-10-31T06:50:33;12.90;98.40
3418;DHT22;68007;51.312;12.372;2023-10-31T06:53:00;12.90;98.40
3418;DHT22;68007;51.312;12.372;2023-10-31T06:55:29;12.90;98.40
3418;DHT22;68007;51.312;12.372;2023-10-31T06:57:58;13.00;98.20
3418;DHT22;68007;51.312;12.372;2023-10-31T07:00:25;13.00;98.00
3418;DHT22;68007;51.312;12.372;2023-10-31T07:02:53;12.90;97.90
3418;DHT22;68007;51.312;12.372;2023-10-31T07:05:20;12.90;98.00
3418;DHT22;68007;51.312;12.372;2023-10-31T07:07:48;12.90;98.20
3418;DHT22;68007;51.312;12.372;2023-10-31T07:10:15;13.00;98.10
3418;DHT22;68007;51.312;12.372;2023-10-31T07:12:43;13.00;97.80
3418;DHT22;68007;51.312;12.372;2023-10-31T07:15:12;13.00;97.70
3418;DHT22;68007;51.312;12.372;2023-10-31T07:17:39;13.00;97.80
3418;DHT22;68007;51.312;12.372;2023-10-31T07:20:07;12.90;97.90
3418;DHT22;68007;51.312;12.372;2023-10-31T07:22:35;13.00;97.70
3418;DHT22;68007;51.312;12.372;2023-10-31T07:25:02;12.90;97.70
3418;DHT22;68007;51.312;12.372;2023-10-31T07:27:30;12.90;97.60
3418;DHT22;68007;51.312;12.372;2023-10-31T07:29:58;12.90;97.70
3418;DHT22;68007;51.312;12.372;2023-10-31T07:32:27;12.80;97.70
3418;DHT22;68007;51.312;12.372;2023-10-31T07:34:54;12.80;97.80
3418;DHT22;68007;51.312;12.372;2023-10-31T07:37:22;12.80;98.10
3418;DHT22;68007;51.312;12.372;2023-10-31T07:39:50;12.90;97.70
3418;DHT22;68007;51.312;12.372;2023-10-31T07:42:18;12.80;97.40
3418;DHT22;68007;51.312;12.372;2023-10-31T07:44:45;12.80;97.50
3418;DHT22;68007;51.312;12.372;2023-10-31T07:47:13;12.80;97.50
3418;DHT22;68007;51.312;12.372;2023-10-31T07:49:42;12.80;97.30
3418;DHT22;68007;51.312;12.372;2023-10-31T07:52:09;12.80;97.20
3418;DHT22;68007;51.312;12.372;2023-10-31T07:54:39;12.70;97.50
3418;DHT22;68007;51.312;12.372;2023-10-31T07:57:06;12.80;97.30
3418;DHT22;68007;51.312;12.372;2023-10-31T07:59:34;12.80;97.00
3418;DHT22;68007;51.312;12.372;2023-10-31T08:02:01;12.80;96.90
3418;DHT22;68007;51.312;12.372;2023-10-31T08:04:29;12.80;96.90
3418;DHT22;68007;51.312;12.372;2023-10-31T08:06:58;12.80;96.70
3418;DHT22;68007;51.312;12.372;2023-10-31T08:09:26;12.80;96.90
3418;DHT22;68007;51.312;12.372;2023-10-31T08:11:53;12.90;96.80
3418;DHT22;68007;51.312;12.372;2023-10-31T08:14:21;12.90;96.40
3418;DHT22;68007;51.312;12.372;2023-10-31T08:16:49;12.90;96.40
3418;DHT22;68007;51.312;12.372;2023-10-31T08:19:16;12.90;96.20
3418;DHT22;68007;51.312;12.372;2023-10-31T08:21:44;13.00;96.20
3418;DHT22;68007;51.312;12.372;2023-10-31T08:24:13;13.00;95.80
3418;DHT22;68007;51.312;12.372;2023-10-31T08:26:40;12.90;95.80
3418;DHT22;68007;51.312;12.372;2023-10-31T08:29:08;12.80;95.80
3418;DHT22;68007;51.312;12.372;2023-10-31T08:31:35;12.90;95.90
3418;DHT22;68007;51.312;12.372;2023-10-31T08:34:03;12.90;95.90
3418;DHT22;68007;51.312;12.372;2023-10-31T08:36:30;12.90;95.30
3418;DHT22;68007;51.312;12.372;2023-10-31T08:38:58;12.90;95.40
3418;DHT22;68007;51.312;12.372;2023-10-31T08:41:27;12.90;95.50
3418;DHT22;68007;51.312;12.372;2023-10-31T08:43:54;12.90;95.40
3418;DHT22;68007;51.312;12.372;2023-10-31T08:46:22;12.90;95.50
3418;DHT22;68007;51.312;12.372;2023-10-31T08:48:49;12.90;95.40
3418;DHT22;68007;51.312;12.372;2023-10-31T08:51:17;12.90;95.30
3418;DHT22;68007;51.312;12.372;2023-10-31T08:53:44;13.00;95.10
3418;DHT22;68007;51.312;12.372;2023-10-31T08:56:12;12.90;95.10
3418;DHT22;68007;51.312;12.372;2023-10-31T08:58:40;13.00;95.30
3418;DHT22;68007;51.312;12.372;2023-10-31T09:01:08;13.10;95.10
3418;DHT22;68007;51.312;12.372;2023-10-31T09:03:36;13.10;95.10
3418;DHT22;68007;51.312;12.372;2023-10-31T09:06:03;13.20;95.00
3418;DHT22;68007;51.312;12.372;2023-10-31T09:08:32;13.20;95.00
3418;DHT22;68007;51.312;12.372;2023-10-31T09:11:00;13.20;94.90
3418;DHT22;68007;51.312;12.372;2023-10-31T09:13:27;13.20;94.60
3418;DHT22;68007;51.312;12.372;2023-10-31T09:15:57;13.20;94.70
3418;DHT22;68007;51.312;12.372;2023-10-31T09:18:25;13.20;94.60
3418;DHT22;68007;51.312;12.372;2023-10-31T09:20:52;13.10;94.60
3418;DHT22;68007;51.312;12.372;2023-10-31T09:23:20;13.20;94.70
3418;DHT22;68007;51.312;12.372;2023-10-31T09:25:47;13.10;94.80
3418;DHT22;68007;51.312;12.372;2023-10-31T09:28:15;13.10;94.80
3418;DHT22;68007;51.312;12.372;2023-10-31T09:30:42;13.10;94.90
3418;DHT22;68007;51.312;12.372;2023-10-31T09:33:11;13.20;94.80
3418;DHT22;68007;51.312;12.372;2023-10-31T09:35:39;13.20;94.90
3418;DHT22;68007;51.312;12.372;2023-10-31T09:38:06;13.20;94.80
3418;DHT22;68007;51.312;12.372;2023-10-31T09:40:35;13.10;94.80
3418;DHT22;68007;51.312;12.372;2023-10-31T09:43:03;13.10;94.90
3418;DHT22;68007;51.312;12.372;2023-10-31T09:45:30;13.00;95.10
3418;DHT22;68007;51.312;12.372;2023-10-31T09:47:59;13.10;95.30
3418;DHT22;68007;51.312;12.372;2023-10-31T09:50:29;13.10;95.30
3418;DHT22;68007;51.312;12.372;2023-10-31T09:52:58;13.20;95.20
3418;DHT22;68007;51.312;12.372;2023-10-31T09:55:27;13.30;95.10
3418;DHT22;68007;51.312;12.372;2023-10-31T09:57:57;13.30;95.00
3418;DHT22;68007;51.312;12.372;2023-10-31T10:00:25;13.40;94.60
3418;DHT22;68007;51.312;12.372;2023-10-31T10:02:54;13.40;94.40
3418;DHT22;68007;51.312;12.372;2023-10-31T10:05:23;13.40;94.30
3418;DHT22;68007;51.312;12.372;2023-10-31T10:07:55;13.30;94.20
3418;DHT22;68007;51.312;12.372;2023-10-31T10:10:22;13.30;93.80
3418;DHT22;68007;51.312;12.372;2023-10-31T10:12:51;13.30;94.00
3418;DHT22;68007;51.312;12.372;2023-10-31T10:15:19;13.30;94.00
3418;DHT22;68007;51.312;12.372;2023-10-31T10:17:51;13.40;93.80
3418;DHT22;68007;51.312;12.372;2023-10-31T10:20:19;13.40;93.60
3418;DHT22;68007;51.312;12.372;2023-10-31T10:22:46;13.30;93.50
3418;DHT22;68007;51.312;12.372;2023-10-31T10:25:17;13.30;93.50
3418;DHT22;68007;51.312;12.372;2023-10-31T10:27:46;13.30;93.60
3418;DHT22;68007;51.312;12.372;2023-10-31T10:30:14;13.30;93.80
3418;DHT22;68007;51.312;12.372;2023-10-31T10:32:42;13.40;93.60
3418;DHT22;68007;51.312;12.372;2023-10-31T10:35:09;13.40;93.70
3418;DHT22;68007;51.312;12.372;2023-10-31T10:37:38;13.40;93.50
3418;DHT22;68007;51.312;12.372;2023-10-31T10:40:07;13.40;93.50
3418;DHT22;68007;51.312;12.372;2023-10-31T10:42:44;13.40;93.60
3418;DHT22;68007;51.312;12.372;2023-10-31T10:45:14;13.50;93.30
3418;DHT22;68007;51.312;12.372;2023-10-31T10:47:46;13.40;93.30
3418;DHT22;68007;51.312;12.372;2023-10-31T10:50:14;13.50;93.30
3418;DHT22;68007;51.312;12.372;2023-10-31T10:52:45;13.40;93.10
3418;DHT22;68007;51.312;12.372;2023-10-31T10:55:20;13.50;93.30
3418;DHT22;68007;51.312;12.372;2023-10-31T10:57:56;13.50;93.20
3418;DHT22;68007;51.312;12.372;2023-10-31T11:00:27;13.50;93.00
3418;DHT22;68007;51.312;12.372;2023-10-31T11:02:56;13.60;93.00
3418;DHT22;68007;51.312;12.372;2023-10-31T11:05:24;13.60;93.10
3418;DHT22;68007;51.312;12.372;2023-10-31T11:07:52;13.70;93.00
3418;DHT22;68007;51.312;12.372;2023-10-31T11:10:21;13.60;92.70
3418;DHT22;68007;51.312;12.372;2023-10-31T11:12:49;13.60;92.70
3418;DHT22;68007;51.312;12.372;2023-10-31T11:15:18;13.70;92.70
3418;DHT22;68007;51.312;12.372;2023-10-31T11:17:47;13.70;92.90
3418;DHT22;68007;51.312;12.372;2023-10-31T11:20:16;13.80;92.80
3418;DHT22;68007;51.312;12.372;2023-10-31T11:22:45;13.80;92.80
3418;DHT22;68007;51.312;12.372;2023-10-31T11:25:17;13.80;92.80
3418;DHT22;68007;51.312;12.372;2023-10-31T11:27:46;13.80;92.50
3418;DHT22;68007;51.312;12.372;2023-10-31T11:30:22;13.80;92.40
3418;DHT22;68007;51.312;12.372;2023-10-31T11:32:51;13.80;92.40
3418;DHT22;68007;51.312;12.372;2023-10-31T11:35:19;13.80;92.30
3418;DHT22;68007;51.312;12.372;2023-10-31T11:37:49;13.70;92.40
3418;DHT22;68007;51.312;12.372;2023-10-31T11:40:21;13.70;92.40
3418;DHT22;68007;51.312;12.372;2023-10-31T11:42:50;13.70;92.50
3418;DHT22;68007;51.312;12.372;2023-10-31T11:45:33;13.70;92.40
3418;DHT22;68007;51.312;12.372;2023-10-31T11:48:00;13.70;92.40
3418;DHT22;68007;51.312;12.372;2023-10-31T11:50:28;13.70;92.40
3418;DHT22;68007;51.312;12.372;2023-10-31T11:53:04;13.70;92.40
3418;DHT22;68007;51.312;12.372;2023-10-31T11:55:35;13.70;92.60
3418;DHT22;68007;51.312;12.372;2023-10-31T11:58:13;13.60;92.50
3418;DHT22;68007;51.312;12.372;2023-10-31T12:00:42;13.60;92.60
3418;DHT22;68007;51.312;12.372;2023-10-31T12:03:11;13.60;92.50
3418;DHT22;68007;51.312;12.372;2023-10-31T12:05:38;13.50;92.50
3418;DHT22;68007;51.312;12.372;2023-10-31T12:08:06;13.50;92.70
3418;DHT22;68007;51.312;12.372;2023-10-31T12:10:33;13.50;92.70
3418;DHT22;68007;51.312;12.372;2023-10-31T12:13:01;13.50;92.90
3418;DHT22;68007;51.312;12.372;2023-10-31T12:15:28;13.50;92.80
3418;DHT22;68007;51.312;12.372;2023-10-31T12:18:00;13.50;92.90
3418;DHT22;68007;51.312;12.372;2023-10-31T12:20:27;13.50;92.90
3418;DHT22;68007;51.312;12.372;2023-10-31T12:23:04;13.50;92.80
3418;DHT22;68007;51.312;12.372;2023-10-31T12:25:31;13.50;92.70
3418;DHT22;68007;51.312;12.372;2023-10-31T12:28:01;13.50;92.80
3418;DHT22;68007;51.312;12.372;2023-10-31T12:30:29;13.50;92.80
3418;DHT22;68007;51.312;12.372;2023-10-31T12:32:56;13.60;92.70
3418;DHT22;68007;51.312;12.372;2023-10-31T12:35:26;13.60;92.50
3418;DHT22;68007;51.312;12.372;2023-10-31T12:37:54;13.70;92.90
3418;DHT22;68007;51.312;12.372;2023-10-31T12:40:24;13.80;92.70
3418;DHT22;68007;51.312;12.372;2023-10-31T12:42:52;13.90;92.50
3418;DHT22;68007;51.312;12.372;2023-10-31T12:45:20;14.00;92.20
3418;DHT22;68007;51.312;12.372;2023-10-31T12:48:00;14.00;92.00
3418;DHT22;68007;51.312;12.372;2023-10-31T12:50:30;14.10;92.10
3418;DHT22;68007;51.312;12.372;2023-10-31T12:52:57;14.10;92.30
3418;DHT22;68007;51.312;12.372;2023-10-31T12:55:27;14.20;92.00
3418;DHT22;68007;51.312;12.372;2023-10-31T12:57:55;14.10;91.90
3418;DHT22;68007;51.312;12.372;2023-10-31T13:00:30;14.10;91.90
3418;DHT22;68007;51.312;12.372;2023-10-31T13:03:02;14.20;92.10
3418;DHT22;68007;51.312;12.372;2023-10-31T13:05:31;14.20;91.80
3418;DHT22;68007;51.312;12.372;2023-10-31T13:08:00;14.10;91.70
3418;DHT22;68007;51.312;12.372;2023-10-31T13:10:31;14.10;91.60
3418;DHT22;68007;51.312;12.372;2023-10-31T13:12:59;14.10;91.80
3418;DHT22;68007;51.312;12.372;2023-10-31T13:15:27;14.10;92.10
3418;DHT22;68007;51.312;12.372;2023-10-31T13:17:54;14.10;92.20
3418;DHT22;68007;51.312;12.372;2023-10-31T13:20:23;14.10;92.10
3418;DHT22;68007;51.312;12.372;2023-10-31T13:22:52;14.10;92.10
3418;DHT22;68007;51.312;12.372;2023-10-31T13:25:19;14.10;91.90
3418;DHT22;68007;51.312;12.372;2023-10-31T13:27:47;14.10;91.90
3418;DHT22;68007;51.312;12.372;2023-10-31T13:30:17;14.00;92.20
3418;DHT22;68007;51.312;12.372;2023-10-31T13:32:45;14.00;92.30
3418;DHT22;68007;51.312;12.372;2023-10-31T13:35:13;14.00;92.30
3418;DHT22;68007;51.312;12.372;2023-10-31T13:37:41;14.00;92.40
3418;DHT22;68007;51.312;12.372;2023-10-31T13:40:10;14.00;92.40
3418;DHT22;68007;51.312;12.372;2023-10-31T13:42:39;14.00;92.10
3418;DHT22;68007;51.312;12.372;2023-10-31T13:45:08;13.90;92.30
3418;DHT22;68007;51.312;12.372;2023-10-31T13:47:35;13.90;92.10
3418;DHT22;68007;51.312;12.372;2023-10-31T13:50:05;13.90;92.20
3418;DHT22;68007;51.312;12.372;2023-10-31T13:52:33;13.90;92.10
3418;DHT22;68007;51.312;12.372;2023-10-31T13:55:00;13.80;92.20
3418;DHT22;68007;51.312;12.372;2023-10-31T13:57:29;13.80;92.20
3418;DHT22;68007;51.312;12.372;2023-10-31T13:59:57;13.80;92.40
3418;DHT22;68007;51.312;12.372;2023-10-31T14:02:26;13.80;92.50
3418;DHT22;68007;51.312;12.372;2023-10-31T14:04:55;13.80;92.60
3418;DHT22;68007;51.312;12.372;2023-10-31T14:07:23;13.80;92.40
3418;DHT22;68007;51.312;12.372;2023-10-31T14:09:51;13.80;92.60
3418;DHT22;68007;51.312;12.372;2023-10-31T14:12:19;13.80;92.50
3418;DHT22;68007;51.312;12.372;2023-10-31T14:14:47;13.90;92.80
3418;DHT22;68007;51.312;12.372;2023-10-31T14:17:16;13.90;92.80
3418;DHT22;68007;51.312;12.372;2023-10-31T14:19:44;14.00;92.80
3418;DHT22;68007;51.312;12.372;2023-10-31T14:22:12;14.00;92.70
3418;DHT22;68007;51.312;12.372;2023-10-31T14:24:40;14.00;92.60
3418;DHT22;68007;51.312;12.372;2023-10-31T14:27:07;14.10;92.60
3418;DHT22;68007;51.312;12.372;2023-10-31T14:29:35;14.10;92.70
3418;DHT22;68007;51.312;12.372;2023-10-31T14:32:07;14.10;92.60
3418;DHT22;68007;51.312;12.372;2023-10-31T14:34:35;14.10;92.70
3418;DHT22;68007;51.312;12.372;2023-10-31T14:37:03;14.10;92.50
3418;DHT22;68007;51.312;12.372;2023-10-31T14:39:32;14.10;92.50
3418;DHT22;68007;51.312;12.372;2023-10-31T14:41:59;14.00;92.70
3418;DHT22;68007;51.312;12.372;2023-10-31T14:44:27;14.00;92.70
3418;DHT22;68007;51.312;12.372;2023-10-31T14:46:55;14.00;92.60
3418;DHT22;68007;51.312;12.372;2023-10-31T14:49:25;14.00;92.80
3418;DHT22;68007;51.312;12.372;2023-10-31T14:51:52;13.90;92.70
3418;DHT22;68007;51.312;12.372;2023-10-31T14:54:20;13.90;92.90
3418;DHT22;68007;51.312;12.372;2023-10-31T14:56:48;13.90;92.80
3418;DHT22;68007;51.312;12.372;2023-10-31T14:59:15;13.90;92.90
3418;DHT22;68007;51.312;12.372;2023-10-31T15:01:43;13.90;92.90
3418;DHT22;68007;51.312;12.372;2023-10-31T15:04:10;13.90;93.20
3418;DHT22;68007;51.312;12.372;2023-10-31T15:06:40;13.90;92.90
3418;DHT22;68007;51.312;12.372;2023-10-31T15:09:07;13.90;93.10
3418;DHT22;68007;51.312;12.372;2023-10-31T15:11:35;13.90;93.00
3418;DHT22;68007;51.312;12.372;2023-10-31T15:14:02;14.00;93.10
3418;DHT22;68007;51.312;12.372;2023-10-31T15:16:30;14.00;93.00
3418;DHT22;68007;51.312;12.372;2023-10-31T15:18:58;14.00;92.90
3418;DHT22;68007;51.312;12.372;2023-10-31T15:21:25;14.00;92.80
3418;DHT22;68007;51.312;12.372;2023-10-31T15:23:54;13.90;92.50
3418;DHT22;68007;51.312;12.372;2023-10-31T15:26:23;13.90;92.90
3418;DHT22;68007;51.312;12.372;2023-10-31T15:28:52;13.90;92.80
3418;DHT22;68007;51.312;12.372;2023-10-31T15:31:20;13.90;92.50
3418;DHT22;68007;51.312;12.372;2023-10-31T15:33:47;13.90;92.50
3418;DHT22;68007;51.312;12.372;2023-10-31T15:36:15;13.90;92.40